イルクーツク の空港の天気 - METARとTAF

イルクーツク国際空港 ( UIII / IKT ) - ロシア イルクーツク
飛行場実況気象(Metar)
観測時間04/27 12:30 IRKT (04/27 04:30 UTC)
風向・風速西北西 8m/s
視程10km以上
天気現象
全天を覆う雲 雲底高度 700m
気温11℃
湿度76%
気圧1016hPa
METARUIII 270430Z 30008MPS 9999 OVC023CB 11/07 Q1016 R30/290150 NOSIG RMK QFE717/0957
過去の天気等 Google飛行場航空写真 Wunderground天気予報

過去48時間のMETAR

飛行場予報(TAF)
発表時間: 4/27 10:00 IRKT (4/27 02:00 UTC)
予報対象時間: 27日11時 IRKT ~ 28日11時 IRKT
風向・風速北西 8m/s
視程5,000m
天気現象弱いしゅう雨
全天の8割程度の積乱雲 雲底高度 210m
27日11時 IRKT ~ 27日23時 IRKT に一時的に
風向・風速北西 10m/s 瞬間風速 15m/s
全天の8割程度の積乱雲 雲底高度 120m
TAF UIII 270200Z 2703/2803 32008MPS 5000 -SHRA BKN007CB
TEMPO 2703/2715 32010G15MPS BKN004CB